createdAt,value
2022-08-07T06:36:12.765Z,11.80
2022-08-07T06:38:59.063Z,12.20
2022-08-07T06:42:02.251Z,12.30
2022-08-07T06:44:57.725Z,12.30
2022-08-07T06:47:27.150Z,12.40
2022-08-07T06:49:58.767Z,12.50
2022-08-07T06:52:36.993Z,12.50
2022-08-07T06:55:31.287Z,12.60
2022-08-07T06:58:10.305Z,12.70
2022-08-07T07:00:47.222Z,12.70
2022-08-07T07:03:39.614Z,12.80
2022-08-07T07:06:11.563Z,12.90
2022-08-07T07:08:39.935Z,13.00
2022-08-07T07:12:08.552Z,13.10
2022-08-07T07:14:08.558Z,13.30
2022-08-07T07:16:49.582Z,13.30
2022-08-07T07:19:56.023Z,13.40
2022-08-07T07:22:36.093Z,13.60
2022-08-07T07:26:30.694Z,13.70
2022-08-07T07:28:42.369Z,13.80
2022-08-07T07:31:05.731Z,14.00
2022-08-07T07:33:36.488Z,14.10
2022-08-07T07:36:12.851Z,14.20
2022-08-07T07:38:45.914Z,14.30
2022-08-07T07:41:17.701Z,14.40
2022-08-07T07:44:14.568Z,14.50
2022-08-07T07:46:54.711Z,14.60
2022-08-07T07:50:33.286Z,14.70
2022-08-07T07:52:17.824Z,14.80
2022-08-07T07:54:51.494Z,15.00
2022-08-07T07:57:44.008Z,15.10
2022-08-07T08:00:20.728Z,15.20
2022-08-07T08:03:05.020Z,15.20
2022-08-07T08:05:50.834Z,15.40
2022-08-07T08:08:36.315Z,15.60
2022-08-07T08:11:16.432Z,15.70
2022-08-07T08:13:57.992Z,15.90
2022-08-07T08:16:37.874Z,16.10
2022-08-07T08:20:15.982Z,16.30
2022-08-07T08:22:17.939Z,16.40
2022-08-07T08:25:24.943Z,16.60
2022-08-07T08:28:03.525Z,16.70
2022-08-07T08:30:37.426Z,16.90
2022-08-07T08:33:17.019Z,17.00
2022-08-07T08:35:50.922Z,17.10
2022-08-07T08:38:25.777Z,17.30
2022-08-07T08:44:31.372Z,17.40
2022-08-07T08:47:17.221Z,17.50
2022-08-07T08:50:18.991Z,17.60
2022-08-07T09:05:05.021Z,18.10
2022-08-07T09:07:58.159Z,18.20
2022-08-07T09:10:45.153Z,18.40
2022-08-07T09:13:38.025Z,18.40
2022-08-07T09:19:50.577Z,18.50
2022-08-07T09:24:33.686Z,18.60
2022-08-07T09:26:22.638Z,18.70
2022-08-07T09:30:06.491Z,18.90
2022-08-07T09:32:05.904Z,18.90
2022-08-07T09:35:04.739Z,19.00
2022-08-07T09:38:10.304Z,19.00
2022-08-07T09:41:09.589Z,19.10
2022-08-07T09:47:42.712Z,19.30
2022-08-07T09:50:19.024Z,19.40
2022-08-07T09:53:08.581Z,19.40
2022-08-07T09:56:39.181Z,19.40
2022-08-07T10:03:08.511Z,19.60
2022-08-07T10:06:49.230Z,19.70
2022-08-07T10:10:03.331Z,19.90
2022-08-07T10:12:52.665Z,20.10
2022-08-07T10:19:37.600Z,20.60
2022-08-07T10:22:24.900Z,20.70
2022-08-07T10:28:56.472Z,20.90
2022-08-07T10:31:53.092Z,21.00
2022-08-07T10:35:01.653Z,20.90
2022-08-07T10:38:35.409Z,21.00
2022-08-07T10:41:47.193Z,21.10
2022-08-07T10:44:40.389Z,21.20
2022-08-07T10:47:58.697Z,21.20
2022-08-07T10:50:49.808Z,21.20
2022-08-07T10:53:57.173Z,21.30
2022-08-07T10:57:13.994Z,21.40
2022-08-07T11:00:36.220Z,21.40
2022-08-07T11:03:16.266Z,21.40
2022-08-07T11:06:18.331Z,21.50
2022-08-07T11:10:09.100Z,21.80
2022-08-07T11:12:32.227Z,21.90
2022-08-07T11:15:17.228Z,22.00
2022-08-07T11:18:27.547Z,22.00
2022-08-07T11:38:21.316Z,23.50
2022-08-07T11:44:18.944Z,24.00
2022-08-07T11:47:19.759Z,24.00
2022-08-07T11:54:00.547Z,24.20
2022-08-07T12:00:11.550Z,24.50
2022-08-07T12:03:41.471Z,24.50
2022-08-07T12:07:08.041Z,24.50
2022-08-07T12:10:07.745Z,24.30
2022-08-07T12:16:05.914Z,24.20
2022-08-07T12:19:04.785Z,24.40
2022-08-07T12:22:39.445Z,24.70
2022-08-07T12:34:49.641Z,25.50
2022-08-07T12:38:09.450Z,25.50
2022-08-07T12:43:12.163Z,25.80
2022-08-07T12:46:43.327Z,25.80
2022-08-07T12:50:04.745Z,25.80
2022-08-07T12:53:18.911Z,26.00
2022-08-07T12:56:03.400Z,26.20
2022-08-07T12:58:40.317Z,26.10
2022-08-07T13:01:32.057Z,26.20
2022-08-07T13:04:32.489Z,26.30
2022-08-07T13:08:12.065Z,26.30
2022-08-07T13:11:25.940Z,26.50
2022-08-07T13:14:09.530Z,26.90
2022-08-07T13:23:59.946Z,27.70
2022-08-07T13:31:57.161Z,28.30
2022-08-07T13:37:58.927Z,28.70
2022-08-07T13:40:43.212Z,28.70
2022-08-07T13:43:15.366Z,28.80
2022-08-07T13:46:21.903Z,29.00
2022-08-07T13:48:59.615Z,29.20
2022-08-07T13:52:22.634Z,29.50
2022-08-07T13:54:22.652Z,29.60
2022-08-07T13:56:59.688Z,29.60
2022-08-07T13:59:33.375Z,29.60
2022-08-07T14:02:13.219Z,29.60
2022-08-07T14:04:54.835Z,29.60
2022-08-07T14:07:30.642Z,29.60
2022-08-07T14:10:21.943Z,29.70
2022-08-07T14:13:01.344Z,29.90
2022-08-07T14:15:37.567Z,30.00
2022-08-07T14:18:28.463Z,29.90
2022-08-07T14:21:21.071Z,29.80
2022-08-07T14:24:08.858Z,29.80
2022-08-07T14:28:09.805Z,29.70
2022-08-07T14:30:11.218Z,29.60
2022-08-07T14:32:57.992Z,29.50
2022-08-07T14:35:44.814Z,29.50
2022-08-07T14:38:26.565Z,29.60
2022-08-07T14:41:12.325Z,29.60
2022-08-07T14:46:36.424Z,29.60
2022-08-07T14:54:54.083Z,29.60
2022-08-07T14:57:54.385Z,29.50
2022-08-07T15:00:29.608Z,29.40
2022-08-07T15:03:19.324Z,29.20
2022-08-07T15:08:49.719Z,29.20
2022-08-07T15:11:53.575Z,29.20
2022-08-07T15:14:22.371Z,29.30
2022-08-07T15:17:01.218Z,29.40
2022-08-07T15:20:30.931Z,29.50
2022-08-07T15:25:39.555Z,29.50
2022-08-07T15:28:34.651Z,29.50
2022-08-07T15:31:05.703Z,29.50
2022-08-07T15:33:38.545Z,29.30
2022-08-07T15:36:11.809Z,29.00
2022-08-07T15:42:43.459Z,28.90
2022-08-07T15:44:23.736Z,28.80
2022-08-07T15:52:44.448Z,28.90
2022-08-07T15:55:23.242Z,28.90
2022-08-07T15:58:20.905Z,29.00
2022-08-07T16:00:50.785Z,29.00
2022-08-07T16:03:47.074Z,29.00
2022-08-07T16:06:14.121Z,29.00
2022-08-07T16:08:46.455Z,28.90
2022-08-07T16:12:00.414Z,28.80
2022-08-07T16:14:59.310Z,28.70
2022-08-07T16:18:50.078Z,28.60
2022-08-07T16:22:02.170Z,28.50
2022-08-07T16:24:38.073Z,28.50
2022-08-07T16:27:27.137Z,28.50
2022-08-07T16:30:30.459Z,28.50
2022-08-07T16:34:03.082Z,28.50
2022-08-07T16:37:01.896Z,28.40
2022-08-07T16:39:48.768Z,28.40
2022-08-07T16:42:26.324Z,28.30
2022-08-07T16:48:31.912Z,28.20
2022-08-07T16:51:54.307Z,28.20
2022-08-07T16:54:54.112Z,28.10
2022-08-07T16:58:02.479Z,28.00
2022-08-07T17:00:42.319Z,28.00
2022-08-07T17:03:58.196Z,28.00
2022-08-07T17:06:58.187Z,27.90
2022-08-07T17:10:32.318Z,27.80
2022-08-07T17:13:41.768Z,27.70
2022-08-07T17:16:39.365Z,27.60
2022-08-07T17:20:01.109Z,27.50
2022-08-07T17:23:17.126Z,27.40
2022-08-07T17:26:22.535Z,27.30
2022-08-07T17:30:14.387Z,27.30
2022-08-07T17:32:36.584Z,27.30
2022-08-07T17:35:51.119Z,27.20
2022-08-07T17:38:52.431Z,27.00
2022-08-07T17:42:02.740Z,26.90
2022-08-07T17:44:51.712Z,26.80
2022-08-07T17:47:53.924Z,26.80
2022-08-07T17:50:46.936Z,26.70
2022-08-07T17:54:06.420Z,26.50
2022-08-07T17:59:35.441Z,26.40
2022-08-07T18:12:16.662Z,26.00
2022-08-07T18:18:39.715Z,25.70
2022-08-07T18:24:12.546Z,25.30
2022-08-07T18:30:33.096Z,25.10
2022-08-07T18:37:09.218Z,24.70
2022-08-07T18:40:38.583Z,24.70
2022-08-07T18:43:11.242Z,24.50
2022-08-07T18:46:21.948Z,24.30
2022-08-07T18:50:30.925Z,24.10
2022-08-07T18:52:35.400Z,24.00
2022-08-07T18:55:43.068Z,23.90
2022-08-07T18:58:51.209Z,23.80
2022-08-07T19:02:19.257Z,23.80
2022-08-07T19:05:15.963Z,23.70
2022-08-07T19:08:05.348Z,23.60
2022-08-07T19:10:51.709Z,23.50
2022-08-07T19:13:27.461Z,23.40
2022-08-07T19:17:01.438Z,23.30
2022-08-07T19:19:41.387Z,23.20
2022-08-07T19:22:34.709Z,23.10
2022-08-07T19:25:07.537Z,22.90
2022-08-07T19:28:57.313Z,22.80
2022-08-07T19:31:05.332Z,22.70
2022-08-07T19:33:33.582Z,22.60
2022-08-07T19:36:04.853Z,22.50
2022-08-07T19:38:52.937Z,22.40
2022-08-07T19:41:44.149Z,22.30
2022-08-07T19:44:31.324Z,22.10
2022-08-07T19:47:11.557Z,22.00
2022-08-07T19:49:56.761Z,21.90
2022-08-07T19:52:28.824Z,21.80
2022-08-07T19:54:58.371Z,21.70
2022-08-07T19:58:01.300Z,21.60
2022-08-07T20:03:33.544Z,21.40
2022-08-07T20:08:51.958Z,21.20
2022-08-07T20:11:34.105Z,21.00
2022-08-07T20:14:21.030Z,21.00
2022-08-07T20:16:54.362Z,20.90
2022-08-07T20:19:28.947Z,20.80
2022-08-07T20:22:28.934Z,20.70
2022-08-07T20:28:05.767Z,20.50
2022-08-07T20:30:46.759Z,20.40
2022-08-07T20:39:00.868Z,20.20
2022-08-07T20:41:44.879Z,20.10
2022-08-07T20:52:24.615Z,19.80
2022-08-07T20:55:12.617Z,19.70
2022-08-07T20:58:00.153Z,19.60
2022-08-07T21:04:07.218Z,19.50
2022-08-07T21:06:36.801Z,19.40
2022-08-07T21:09:13.943Z,19.30
2022-08-07T21:11:50.514Z,19.30
2022-08-07T21:14:33.817Z,19.20
2022-08-07T21:18:05.699Z,19.10
2022-08-07T21:20:04.649Z,19.10
2022-08-07T21:22:45.159Z,19.00
2022-08-07T21:25:57.011Z,18.90
2022-08-07T21:28:55.509Z,18.90
2022-08-07T21:32:47.132Z,18.80
2022-08-07T21:35:12.523Z,18.70
2022-08-07T21:38:44.567Z,18.60
2022-08-07T21:41:52.288Z,18.50
2022-08-07T21:44:59.546Z,18.50
2022-08-07T21:48:07.038Z,18.40
2022-08-07T21:51:25.093Z,18.30
2022-08-07T21:54:04.538Z,18.20
2022-08-07T21:57:07.952Z,18.20
2022-08-07T22:00:05.442Z,18.10
2022-08-07T22:03:16.541Z,18.00
2022-08-07T22:06:07.962Z,18.00
2022-08-07T22:09:02.800Z,17.80
2022-08-07T22:12:05.286Z,17.80
2022-08-07T22:14:59.242Z,17.70
2022-08-07T22:17:36.870Z,17.70
2022-08-07T22:20:34.362Z,17.60
2022-08-07T22:23:40.493Z,17.50
2022-08-07T22:26:26.886Z,17.50
2022-08-07T22:29:08.866Z,17.40
2022-08-07T22:32:10.676Z,17.40
2022-08-07T22:34:53.462Z,17.30
2022-08-07T22:38:04.490Z,17.30
2022-08-07T22:40:48.919Z,17.20
2022-08-07T22:43:27.886Z,17.10
2022-08-07T22:46:47.253Z,17.10
2022-08-07T22:49:59.668Z,17.00
2022-08-07T22:53:15.353Z,16.90
2022-08-07T22:55:59.565Z,16.90
2022-08-07T22:58:37.768Z,16.80
2022-08-07T23:01:52.973Z,16.80
2022-08-07T23:04:57.892Z,16.70
2022-08-07T23:07:42.136Z,16.70
2022-08-07T23:10:56.312Z,16.60
2022-08-07T23:14:24.773Z,16.60
2022-08-07T23:17:41.825Z,16.50
2022-08-07T23:20:40.763Z,16.50
2022-08-07T23:24:04.973Z,16.40
2022-08-07T23:26:19.294Z,16.40
2022-08-07T23:29:16.595Z,16.30
2022-08-07T23:34:18.889Z,16.30
2022-08-07T23:35:24.154Z,16.20
2022-08-07T23:38:42.288Z,16.10
2022-08-07T23:42:01.485Z,16.10
2022-08-07T23:45:15.331Z,16.00
2022-08-07T23:48:47.090Z,16.00
2022-08-07T23:52:59.451Z,15.90
2022-08-07T23:54:46.809Z,15.80
2022-08-07T23:57:41.713Z,15.80
